sensor_id;sensor_type;location;lat;lon;timestamp;P1;durP1;ratioP1;P2;durP2;ratioP2
74941;SDS011;63506;49.346;8.798;2024-02-15T00:01:11;16.27;;;8.88;;
74941;SDS011;63506;49.346;8.798;2024-02-15T00:03:55;19.52;;;9.32;;
74941;SDS011;63506;49.346;8.798;2024-02-15T00:06:43;16.98;;;8.55;;
74941;SDS011;63506;49.346;8.798;2024-02-15T00:09:27;14.02;;;7.30;;
74941;SDS011;63506;49.346;8.798;2024-02-15T00:12:12;16.70;;;8.20;;
74941;SDS011;63506;49.346;8.798;2024-02-15T00:14:59;16.52;;;8.15;;
74941;SDS011;63506;49.346;8.798;2024-02-15T00:17:44;35.53;;;8.32;;
74941;SDS011;63506;49.346;8.798;2024-02-15T00:20:31;46.65;;;8.38;;
74941;SDS011;63506;49.346;8.798;2024-02-15T00:23:19;18.08;;;7.30;;
74941;SDS011;63506;49.346;8.798;2024-02-15T00:26:05;20.65;;;8.82;;
74941;SDS011;63506;49.346;8.798;2024-02-15T00:28:53;20.50;;;9.90;;
74941;SDS011;63506;49.346;8.798;2024-02-15T00:31:37;14.93;;;8.88;;
74941;SDS011;63506;49.346;8.798;2024-02-15T00:34:24;27.00;;;9.13;;
74941;SDS011;63506;49.346;8.798;2024-02-15T00:37:08;48.17;;;9.25;;
74941;SDS011;63506;49.346;8.798;2024-02-15T00:40:00;34.00;;;9.02;;
74941;SDS011;63506;49.346;8.798;2024-02-15T00:42:47;32.72;;;7.70;;
74941;SDS011;63506;49.346;8.798;2024-02-15T00:45:32;25.17;;;7.75;;
74941;SDS011;63506;49.346;8.798;2024-02-15T00:48:20;28.05;;;9.55;;
74941;SDS011;63506;49.346;8.798;2024-02-15T00:51:11;25.92;;;7.35;;
74941;SDS011;63506;49.346;8.798;2024-02-15T00:53:56;15.93;;;7.13;;
74941;SDS011;63506;49.346;8.798;2024-02-15T00:56:45;24.58;;;8.60;;
74941;SDS011;63506;49.346;8.798;2024-02-15T00:59:29;18.05;;;7.72;;
74941;SDS011;63506;49.346;8.798;2024-02-15T01:02:16;16.90;;;7.90;;
74941;SDS011;63506;49.346;8.798;2024-02-15T01:05:04;15.30;;;6.88;;
74941;SDS011;63506;49.346;8.798;2024-02-15T01:07:51;16.05;;;6.43;;
74941;SDS011;63506;49.346;8.798;2024-02-15T01:10:37;15.43;;;5.85;;
74941;SDS011;63506;49.346;8.798;2024-02-15T01:13:24;18.08;;;6.63;;
74941;SDS011;63506;49.346;8.798;2024-02-15T01:16:11;10.02;;;5.55;;
74941;SDS011;63506;49.346;8.798;2024-02-15T01:19:02;19.40;;;6.80;;
74941;SDS011;63506;49.346;8.798;2024-02-15T01:21:48;15.52;;;7.38;;
74941;SDS011;63506;49.346;8.798;2024-02-15T01:24:37;21.65;;;7.45;;
74941;SDS011;63506;49.346;8.798;2024-02-15T01:27:24;33.45;;;9.02;;
74941;SDS011;63506;49.346;8.798;2024-02-15T01:30:16;19.85;;;8.45;;
74941;SDS011;63506;49.346;8.798;2024-02-15T01:33:01;27.05;;;10.18;;
74941;SDS011;63506;49.346;8.798;2024-02-15T01:35:48;18.25;;;8.10;;
74941;SDS011;63506;49.346;8.798;2024-02-15T01:38:32;12.68;;;7.38;;
74941;SDS011;63506;49.346;8.798;2024-02-15T01:41:19;15.65;;;7.40;;
74941;SDS011;63506;49.346;8.798;2024-02-15T01:44:04;24.08;;;8.57;;
74941;SDS011;63506;49.346;8.798;2024-02-15T01:46:54;17.35;;;7.00;;
74941;SDS011;63506;49.346;8.798;2024-02-15T01:49:40;12.23;;;6.57;;
74941;SDS011;63506;49.346;8.798;2024-02-15T01:52:27;16.65;;;6.97;;
74941;SDS011;63506;49.346;8.798;2024-02-15T01:55:12;16.48;;;6.38;;
74941;SDS011;63506;49.346;8.798;2024-02-15T01:58:00;22.38;;;7.75;;
74941;SDS011;63506;49.346;8.798;2024-02-15T02:00:45;20.63;;;9.30;;
74941;SDS011;63506;49.346;8.798;2024-02-15T02:03:34;14.23;;;7.68;;
74941;SDS011;63506;49.346;8.798;2024-02-15T02:06:21;20.35;;;8.23;;
74941;SDS011;63506;49.346;8.798;2024-02-15T02:09:06;16.35;;;9.18;;
74941;SDS011;63506;49.346;8.798;2024-02-15T02:11:53;16.13;;;8.68;;
74941;SDS011;63506;49.346;8.798;2024-02-15T02:14:39;20.83;;;7.07;;
74941;SDS011;63506;49.346;8.798;2024-02-15T02:17:25;14.07;;;6.93;;
74941;SDS011;63506;49.346;8.798;2024-02-15T02:20:14;17.73;;;7.90;;
74941;SDS011;63506;49.346;8.798;2024-02-15T02:23:02;20.30;;;8.63;;
74941;SDS011;63506;49.346;8.798;2024-02-15T02:25:53;16.42;;;7.85;;
74941;SDS011;63506;49.346;8.798;2024-02-15T02:28:42;22.13;;;8.07;;
74941;SDS011;63506;49.346;8.798;2024-02-15T02:31:26;14.25;;;7.28;;
74941;SDS011;63506;49.346;8.798;2024-02-15T02:34:12;14.98;;;7.05;;
74941;SDS011;63506;49.346;8.798;2024-02-15T02:36:57;15.70;;;7.38;;
74941;SDS011;63506;49.346;8.798;2024-02-15T02:39:49;15.45;;;7.05;;
74941;SDS011;63506;49.346;8.798;2024-02-15T02:42:38;17.88;;;7.65;;
74941;SDS011;63506;49.346;8.798;2024-02-15T02:45:31;18.75;;;7.97;;
74941;SDS011;63506;49.346;8.798;2024-02-15T02:48:16;16.45;;;8.80;;
74941;SDS011;63506;49.346;8.798;2024-02-15T02:51:01;16.73;;;8.25;;
74941;SDS011;63506;49.346;8.798;2024-02-15T02:53:45;12.73;;;8.18;;
74941;SDS011;63506;49.346;8.798;2024-02-15T02:56:29;15.27;;;8.02;;
74941;SDS011;63506;49.346;8.798;2024-02-15T02:59:23;15.80;;;8.20;;
74941;SDS011;63506;49.346;8.798;2024-02-15T03:02:08;14.35;;;8.40;;
74941;SDS011;63506;49.346;8.798;2024-02-15T03:04:53;15.38;;;8.45;;
74941;SDS011;63506;49.346;8.798;2024-02-15T03:07:40;14.27;;;7.68;;
74941;SDS011;63506;49.346;8.798;2024-02-15T03:10:29;16.50;;;8.88;;
74941;SDS011;63506;49.346;8.798;2024-02-15T03:13:16;15.38;;;9.13;;
74941;SDS011;63506;49.346;8.798;2024-02-15T03:16:06;17.02;;;9.05;;
74941;SDS011;63506;49.346;8.798;2024-02-15T03:18:53;14.95;;;7.93;;
74941;SDS011;63506;49.346;8.798;2024-02-15T03:21:42;15.10;;;8.30;;
74941;SDS011;63506;49.346;8.798;2024-02-15T03:24:30;14.85;;;8.25;;
74941;SDS011;63506;49.346;8.798;2024-02-15T03:27:16;13.90;;;7.80;;
74941;SDS011;63506;49.346;8.798;2024-02-15T03:30:06;13.50;;;6.90;;
74941;SDS011;63506;49.346;8.798;2024-02-15T03:32:58;16.13;;;8.20;;
74941;SDS011;63506;49.346;8.798;2024-02-15T03:35:49;15.05;;;7.53;;
74941;SDS011;63506;49.346;8.798;2024-02-15T03:38:34;14.07;;;7.63;;
74941;SDS011;63506;49.346;8.798;2024-02-15T03:41:19;13.73;;;7.60;;
74941;SDS011;63506;49.346;8.798;2024-02-15T03:44:09;11.90;;;6.57;;
74941;SDS011;63506;49.346;8.798;2024-02-15T03:46:58;11.82;;;7.13;;
74941;SDS011;63506;49.346;8.798;2024-02-15T03:49:44;15.05;;;6.80;;
74941;SDS011;63506;49.346;8.798;2024-02-15T03:52:31;11.05;;;6.38;;
74941;SDS011;63506;49.346;8.798;2024-02-15T03:55:16;13.23;;;7.43;;
74941;SDS011;63506;49.346;8.798;2024-02-15T03:58:03;11.65;;;6.78;;
74941;SDS011;63506;49.346;8.798;2024-02-15T04:00:52;11.13;;;6.72;;
74941;SDS011;63506;49.346;8.798;2024-02-15T04:03:43;14.35;;;6.78;;
74941;SDS011;63506;49.346;8.798;2024-02-15T04:06:33;15.35;;;6.55;;
74941;SDS011;63506;49.346;8.798;2024-02-15T04:09:20;12.20;;;6.57;;
74941;SDS011;63506;49.346;8.798;2024-02-15T04:12:04;12.13;;;6.50;;
74941;SDS011;63506;49.346;8.798;2024-02-15T04:14:51;14.27;;;7.45;;
74941;SDS011;63506;49.346;8.798;2024-02-15T04:17:39;14.30;;;6.40;;
74941;SDS011;63506;49.346;8.798;2024-02-15T04:20:28;10.60;;;6.00;;
74941;SDS011;63506;49.346;8.798;2024-02-15T04:23:14;12.57;;;7.13;;
74941;SDS011;63506;49.346;8.798;2024-02-15T04:26:02;12.93;;;7.18;;
74941;SDS011;63506;49.346;8.798;2024-02-15T04:28:47;12.23;;;6.72;;
74941;SDS011;63506;49.346;8.798;2024-02-15T04:31:35;11.00;;;6.57;;
74941;SDS011;63506;49.346;8.798;2024-02-15T04:34:23;11.68;;;6.95;;
74941;SDS011;63506;49.346;8.798;2024-02-15T04:37:12;11.32;;;6.90;;
74941;SDS011;63506;49.346;8.798;2024-02-15T04:40:00;12.32;;;7.00;;
74941;SDS011;63506;49.346;8.798;2024-02-15T04:42:49;11.85;;;6.90;;
74941;SDS011;63506;49.346;8.798;2024-02-15T04:45:36;15.20;;;8.90;;
74941;SDS011;63506;49.346;8.798;2024-02-15T04:48:20;18.52;;;11.88;;
74941;SDS011;63506;49.346;8.798;2024-02-15T04:51:06;18.90;;;11.68;;
74941;SDS011;63506;49.346;8.798;2024-02-15T04:53:50;17.20;;;10.52;;
74941;SDS011;63506;49.346;8.798;2024-02-15T04:56:39;14.65;;;7.43;;
74941;SDS011;63506;49.346;8.798;2024-02-15T04:59:25;12.82;;;7.90;;
74941;SDS011;63506;49.346;8.798;2024-02-15T05:02:12;14.73;;;8.52;;
74941;SDS011;63506;49.346;8.798;2024-02-15T05:05:00;12.15;;;7.47;;
74941;SDS011;63506;49.346;8.798;2024-02-15T05:07:47;16.35;;;8.30;;
74941;SDS011;63506;49.346;8.798;2024-02-15T05:10:32;12.57;;;7.30;;
74941;SDS011;63506;49.346;8.798;2024-02-15T05:13:21;13.18;;;7.30;;
74941;SDS011;63506;49.346;8.798;2024-02-15T05:16:10;12.27;;;7.05;;
74941;SDS011;63506;49.346;8.798;2024-02-15T05:18:57;16.58;;;7.07;;
74941;SDS011;63506;49.346;8.798;2024-02-15T05:21:45;13.63;;;6.60;;
74941;SDS011;63506;49.346;8.798;2024-02-15T05:24:29;12.68;;;6.72;;
74941;SDS011;63506;49.346;8.798;2024-02-15T05:27:16;10.27;;;6.97;;
74941;SDS011;63506;49.346;8.798;2024-02-15T05:30:09;13.50;;;6.80;;
74941;SDS011;63506;49.346;8.798;2024-02-15T05:32:58;12.65;;;6.55;;
74941;SDS011;63506;49.346;8.798;2024-02-15T05:35:42;11.73;;;6.32;;
74941;SDS011;63506;49.346;8.798;2024-02-15T05:38:35;12.57;;;6.07;;
74941;SDS011;63506;49.346;8.798;2024-02-15T05:41:20;11.63;;;6.80;;
74941;SDS011;63506;49.346;8.798;2024-02-15T05:44:07;13.27;;;5.85;;
74941;SDS011;63506;49.346;8.798;2024-02-15T05:46:54;14.70;;;6.68;;
74941;SDS011;63506;49.346;8.798;2024-02-15T05:49:40;11.55;;;6.63;;
74941;SDS011;63506;49.346;8.798;2024-02-15T05:52:27;11.07;;;6.25;;
74941;SDS011;63506;49.346;8.798;2024-02-15T05:55:14;9.90;;;5.28;;
74941;SDS011;63506;49.346;8.798;2024-02-15T05:58:00;13.30;;;5.93;;
74941;SDS011;63506;49.346;8.798;2024-02-15T06:00:46;10.50;;;5.70;;
74941;SDS011;63506;49.346;8.798;2024-02-15T06:03:34;10.52;;;6.43;;
74941;SDS011;63506;49.346;8.798;2024-02-15T06:06:25;9.63;;;5.65;;
74941;SDS011;63506;49.346;8.798;2024-02-15T06:09:09;13.45;;;6.65;;
74941;SDS011;63506;49.346;8.798;2024-02-15T06:11:56;12.43;;;6.18;;
74941;SDS011;63506;49.346;8.798;2024-02-15T06:14:43;11.07;;;5.82;;
74941;SDS011;63506;49.346;8.798;2024-02-15T06:17:27;10.38;;;5.50;;
74941;SDS011;63506;49.346;8.798;2024-02-15T06:20:15;10.55;;;6.07;;
74941;SDS011;63506;49.346;8.798;2024-02-15T06:23:03;9.95;;;5.85;;
74941;SDS011;63506;49.346;8.798;2024-02-15T06:25:50;11.40;;;7.03;;
74941;SDS011;63506;49.346;8.798;2024-02-15T06:28:38;15.77;;;8.45;;
74941;SDS011;63506;49.346;8.798;2024-02-15T06:31:37;13.88;;;6.20;;
74941;SDS011;63506;49.346;8.798;2024-02-15T06:34:33;11.68;;;6.47;;
74941;SDS011;63506;49.346;8.798;2024-02-15T06:37:39;13.60;;;6.07;;
74941;SDS011;63506;49.346;8.798;2024-02-15T06:40:36;13.52;;;6.22;;
74941;SDS011;63506;49.346;8.798;2024-02-15T06:43:22;10.27;;;6.10;;
74941;SDS011;63506;49.346;8.798;2024-02-15T06:46:06;12.25;;;6.45;;
74941;SDS011;63506;49.346;8.798;2024-02-15T06:48:52;10.07;;;5.57;;
74941;SDS011;63506;49.346;8.798;2024-02-15T06:51:38;14.23;;;5.95;;
74941;SDS011;63506;49.346;8.798;2024-02-15T06:54:25;11.05;;;5.28;;
74941;SDS011;63506;49.346;8.798;2024-02-15T06:57:12;11.68;;;5.55;;
74941;SDS011;63506;49.346;8.798;2024-02-15T06:59:57;11.50;;;6.25;;
74941;SDS011;63506;49.346;8.798;2024-02-15T07:02:43;11.48;;;5.93;;
74941;SDS011;63506;49.346;8.798;2024-02-15T07:05:32;12.25;;;5.40;;
74941;SDS011;63506;49.346;8.798;2024-02-15T07:08:16;12.95;;;6.07;;
74941;SDS011;63506;49.346;8.798;2024-02-15T07:11:05;10.45;;;5.30;;
74941;SDS011;63506;49.346;8.798;2024-02-15T07:13:57;14.10;;;5.90;;
74941;SDS011;63506;49.346;8.798;2024-02-15T07:16:44;13.48;;;6.47;;
74941;SDS011;63506;49.346;8.798;2024-02-15T07:19:33;11.77;;;6.72;;
74941;SDS011;63506;49.346;8.798;2024-02-15T07:22:19;14.45;;;6.85;;
74941;SDS011;63506;49.346;8.798;2024-02-15T07:25:06;16.42;;;7.72;;
74941;SDS011;63506;49.346;8.798;2024-02-15T07:27:56;17.73;;;7.72;;
74941;SDS011;63506;49.346;8.798;2024-02-15T07:30:45;15.23;;;6.57;;
74941;SDS011;63506;49.346;8.798;2024-02-15T07:33:33;16.63;;;6.55;;
74941;SDS011;63506;49.346;8.798;2024-02-15T07:36:22;12.30;;;6.25;;
74941;SDS011;63506;49.346;8.798;2024-02-15T07:39:10;11.80;;;6.63;;
74941;SDS011;63506;49.346;8.798;2024-02-15T07:42:06;11.70;;;6.75;;
74941;SDS011;63506;49.346;8.798;2024-02-15T07:44:55;16.70;;;7.07;;
74941;SDS011;63506;49.346;8.798;2024-02-15T07:47:42;16.95;;;8.07;;
74941;SDS011;63506;49.346;8.798;2024-02-15T07:50:28;14.60;;;6.70;;
74941;SDS011;63506;49.346;8.798;2024-02-15T07:53:13;12.55;;;6.20;;
74941;SDS011;63506;49.346;8.798;2024-02-15T07:55:57;10.40;;;5.70;;
74941;SDS011;63506;49.346;8.798;2024-02-15T07:58:42;14.15;;;6.35;;
74941;SDS011;63506;49.346;8.798;2024-02-15T08:01:33;11.00;;;6.50;;
74941;SDS011;63506;49.346;8.798;2024-02-15T08:04:19;10.35;;;6.07;;
74941;SDS011;63506;49.346;8.798;2024-02-15T08:07:11;9.88;;;5.93;;
74941;SDS011;63506;49.346;8.798;2024-02-15T08:09:58;10.32;;;5.90;;
74941;SDS011;63506;49.346;8.798;2024-02-15T08:12:45;8.10;;;4.95;;
74941;SDS011;63506;49.346;8.798;2024-02-15T08:15:35;8.70;;;5.38;;
74941;SDS011;63506;49.346;8.798;2024-02-15T08:18:22;15.82;;;5.70;;
74941;SDS011;63506;49.346;8.798;2024-02-15T08:21:06;12.18;;;6.15;;
74941;SDS011;63506;49.346;8.798;2024-02-15T08:23:54;13.23;;;6.93;;
74941;SDS011;63506;49.346;8.798;2024-02-15T08:26:39;10.88;;;6.40;;
74941;SDS011;63506;49.346;8.798;2024-02-15T08:29:27;10.57;;;6.22;;
74941;SDS011;63506;49.346;8.798;2024-02-15T08:32:11;10.63;;;6.20;;
74941;SDS011;63506;49.346;8.798;2024-02-15T08:34:58;11.48;;;5.43;;
74941;SDS011;63506;49.346;8.798;2024-02-15T08:37:48;10.98;;;6.10;;
74941;SDS011;63506;49.346;8.798;2024-02-15T08:40:36;9.85;;;5.55;;
74941;SDS011;63506;49.346;8.798;2024-02-15T08:43:25;7.57;;;5.13;;
74941;SDS011;63506;49.346;8.798;2024-02-15T08:46:09;10.35;;;5.20;;
74941;SDS011;63506;49.346;8.798;2024-02-15T08:48:53;10.02;;;5.93;;
74941;SDS011;63506;49.346;8.798;2024-02-15T08:51:40;13.02;;;6.50;;
74941;SDS011;63506;49.346;8.798;2024-02-15T08:54:25;13.45;;;6.07;;
74941;SDS011;63506;49.346;8.798;2024-02-15T08:57:11;9.82;;;6.03;;
74941;SDS011;63506;49.346;8.798;2024-02-15T08:59:58;10.00;;;5.90;;
74941;SDS011;63506;49.346;8.798;2024-02-15T09:02:45;12.52;;;6.05;;
74941;SDS011;63506;49.346;8.798;2024-02-15T09:05:35;9.13;;;5.75;;
74941;SDS011;63506;49.346;8.798;2024-02-15T09:08:24;8.45;;;5.25;;
74941;SDS011;63506;49.346;8.798;2024-02-15T09:11:11;10.00;;;5.28;;
74941;SDS011;63506;49.346;8.798;2024-02-15T09:13:55;8.70;;;4.70;;
74941;SDS011;63506;49.346;8.798;2024-02-15T09:16:42;9.05;;;5.50;;
74941;SDS011;63506;49.346;8.798;2024-02-15T09:19:27;10.85;;;5.25;;
74941;SDS011;63506;49.346;8.798;2024-02-15T09:22:11;8.27;;;4.38;;
74941;SDS011;63506;49.346;8.798;2024-02-15T09:25:00;13.93;;;5.10;;
74941;SDS011;63506;49.346;8.798;2024-02-15T09:27:44;7.13;;;3.97;;
74941;SDS011;63506;49.346;8.798;2024-02-15T09:30:29;6.43;;;3.78;;
74941;SDS011;63506;49.346;8.798;2024-02-15T09:33:17;5.93;;;3.78;;
74941;SDS011;63506;49.346;8.798;2024-02-15T09:36:05;5.07;;;2.08;;
74941;SDS011;63506;49.346;8.798;2024-02-15T09:38:52;5.35;;;2.33;;
74941;SDS011;63506;49.346;8.798;2024-02-15T09:41:38;4.45;;;1.95;;
74941;SDS011;63506;49.346;8.798;2024-02-15T09:45:05;6.45;;;2.22;;
74941;SDS011;63506;49.346;8.798;2024-02-15T09:48:59;6.13;;;2.17;;
74941;SDS011;63506;49.346;8.798;2024-02-15T09:57:02;5.50;;;2.80;;
74941;SDS011;63506;49.346;8.798;2024-02-15T09:59:47;5.60;;;2.78;;
74941;SDS011;63506;49.346;8.798;2024-02-15T10:02:31;5.20;;;2.60;;
74941;SDS011;63506;49.346;8.798;2024-02-15T10:05:22;4.70;;;1.95;;
74941;SDS011;63506;49.346;8.798;2024-02-15T10:08:15;3.35;;;2.05;;
74941;SDS011;63506;49.346;8.798;2024-02-15T10:11:05;3.25;;;1.65;;
74941;SDS011;63506;49.346;8.798;2024-02-15T10:13:54;2.80;;;1.40;;
74941;SDS011;63506;49.346;8.798;2024-02-15T10:17:04;2.72;;;1.40;;
74941;SDS011;63506;49.346;8.798;2024-02-15T10:20:05;2.88;;;1.55;;
74941;SDS011;63506;49.346;8.798;2024-02-15T10:22:51;3.17;;;1.30;;
74941;SDS011;63506;49.346;8.798;2024-02-15T10:25:37;3.22;;;1.38;;
74941;SDS011;63506;49.346;8.798;2024-02-15T10:28:23;6.90;;;1.90;;
74941;SDS011;63506;49.346;8.798;2024-02-15T10:31:11;2.97;;;1.45;;
74941;SDS011;63506;49.346;8.798;2024-02-15T10:34:13;3.13;;;1.73;;
74941;SDS011;63506;49.346;8.798;2024-02-15T10:37:10;3.17;;;1.35;;
74941;SDS011;63506;49.346;8.798;2024-02-15T10:40:03;4.03;;;1.17;;
74941;SDS011;63506;49.346;8.798;2024-02-15T10:42:57;3.83;;;1.40;;
74941;SDS011;63506;49.346;8.798;2024-02-15T10:45:44;3.55;;;1.58;;
74941;SDS011;63506;49.346;8.798;2024-02-15T10:48:33;2.25;;;1.50;;
74941;SDS011;63506;49.346;8.798;2024-02-15T10:51:18;3.20;;;1.40;;
74941;SDS011;63506;49.346;8.798;2024-02-15T10:54:07;3.95;;;1.50;;
74941;SDS011;63506;49.346;8.798;2024-02-15T10:57:03;5.72;;;1.92;;
74941;SDS011;63506;49.346;8.798;2024-02-15T10:59:56;4.22;;;1.40;;
74941;SDS011;63506;49.346;8.798;2024-02-15T11:02:56;2.20;;;1.63;;
74941;SDS011;63506;49.346;8.798;2024-02-15T11:05:57;3.28;;;1.50;;
74941;SDS011;63506;49.346;8.798;2024-02-15T11:08:46;2.58;;;1.45;;
74941;SDS011;63506;49.346;8.798;2024-02-15T11:11:33;3.08;;;1.30;;
74941;SDS011;63506;49.346;8.798;2024-02-15T11:14:25;3.17;;;1.38;;
74941;SDS011;63506;49.346;8.798;2024-02-15T11:20:49;2.05;;;1.20;;
74941;SDS011;63506;49.346;8.798;2024-02-15T11:23:43;4.70;;;1.92;;
74941;SDS011;63506;49.346;8.798;2024-02-15T11:32:54;2.83;;;1.48;;
74941;SDS011;63506;49.346;8.798;2024-02-15T11:36:01;3.47;;;1.20;;
74941;SDS011;63506;49.346;8.798;2024-02-15T11:38:54;4.85;;;1.75;;
74941;SDS011;63506;49.346;8.798;2024-02-15T11:41:40;3.88;;;1.13;;
74941;SDS011;63506;49.346;8.798;2024-02-15T11:45:19;2.70;;;1.15;;
74941;SDS011;63506;49.346;8.798;2024-02-15T11:48:21;1.58;;;0.98;;
74941;SDS011;63506;49.346;8.798;2024-02-15T11:51:10;2.78;;;0.90;;
74941;SDS011;63506;49.346;8.798;2024-02-15T11:54:25;1.98;;;0.80;;
74941;SDS011;63506;49.346;8.798;2024-02-15T11:57:12;3.40;;;0.98;;
74941;SDS011;63506;49.346;8.798;2024-02-15T12:00:25;4.32;;;1.38;;
74941;SDS011;63506;49.346;8.798;2024-02-15T12:04:02;2.65;;;0.90;;
74941;SDS011;63506;49.346;8.798;2024-02-15T12:07:03;4.05;;;0.80;;
74941;SDS011;63506;49.346;8.798;2024-02-15T12:10:02;2.58;;;0.98;;
74941;SDS011;63506;49.346;8.798;2024-02-15T12:13:02;2.30;;;1.10;;
74941;SDS011;63506;49.346;8.798;2024-02-15T12:16:07;3.88;;;0.90;;
74941;SDS011;63506;49.346;8.798;2024-02-15T12:19:06;2.95;;;0.90;;
74941;SDS011;63506;49.346;8.798;2024-02-15T12:21:54;2.30;;;0.80;;
74941;SDS011;63506;49.346;8.798;2024-02-15T12:24:43;1.23;;;0.63;;
74941;SDS011;63506;49.346;8.798;2024-02-15T12:27:30;1.80;;;0.70;;
74941;SDS011;63506;49.346;8.798;2024-02-15T12:30:17;0.90;;;0.60;;
74941;SDS011;63506;49.346;8.798;2024-02-15T12:33:08;3.00;;;0.98;;
74941;SDS011;63506;49.346;8.798;2024-02-15T12:36:03;1.90;;;0.80;;
74941;SDS011;63506;49.346;8.798;2024-02-15T12:38:58;1.77;;;0.60;;
74941;SDS011;63506;49.346;8.798;2024-02-15T12:41:47;3.33;;;0.95;;
74941;SDS011;63506;49.346;8.798;2024-02-15T12:44:41;3.13;;;1.30;;
74941;SDS011;63506;49.346;8.798;2024-02-15T12:47:30;1.67;;;0.75;;
74941;SDS011;63506;49.346;8.798;2024-02-15T12:50:17;2.40;;;1.00;;
74941;SDS011;63506;49.346;8.798;2024-02-15T12:53:03;1.80;;;0.88;;
74941;SDS011;63506;49.346;8.798;2024-02-15T12:55:52;2.55;;;0.80;;
74941;SDS011;63506;49.346;8.798;2024-02-15T12:58:40;2.75;;;0.68;;
74941;SDS011;63506;49.346;8.798;2024-02-15T13:01:31;4.30;;;0.95;;
74941;SDS011;63506;49.346;8.798;2024-02-15T13:04:22;1.15;;;0.52;;
74941;SDS011;63506;49.346;8.798;2024-02-15T13:07:07;1.73;;;0.80;;
74941;SDS011;63506;49.346;8.798;2024-02-15T13:09:56;2.22;;;0.63;;
74941;SDS011;63506;49.346;8.798;2024-02-15T13:12:43;3.10;;;0.70;;
74941;SDS011;63506;49.346;8.798;2024-02-15T13:15:31;2.33;;;0.82;;
74941;SDS011;63506;49.346;8.798;2024-02-15T13:18:20;1.48;;;0.70;;
74941;SDS011;63506;49.346;8.798;2024-02-15T13:21:09;2.15;;;0.85;;
74941;SDS011;63506;49.346;8.798;2024-02-15T13:23:53;3.67;;;0.70;;
74941;SDS011;63506;49.346;8.798;2024-02-15T13:26:38;2.17;;;0.88;;
74941;SDS011;63506;49.346;8.798;2024-02-15T13:29:26;2.45;;;0.95;;
74941;SDS011;63506;49.346;8.798;2024-02-15T13:32:18;1.98;;;1.02;;
74941;SDS011;63506;49.346;8.798;2024-02-15T13:35:05;3.20;;;0.70;;
74941;SDS011;63506;49.346;8.798;2024-02-15T13:37:54;2.90;;;0.80;;
74941;SDS011;63506;49.346;8.798;2024-02-15T13:40:39;0.90;;;0.50;;
74941;SDS011;63506;49.346;8.798;2024-02-15T13:43:25;2.38;;;0.70;;
74941;SDS011;63506;49.346;8.798;2024-02-15T13:46:11;2.38;;;0.60;;
74941;SDS011;63506;49.346;8.798;2024-02-15T13:49:02;0.88;;;0.60;;
74941;SDS011;63506;49.346;8.798;2024-02-15T13:51:51;4.13;;;0.57;;
74941;SDS011;63506;49.346;8.798;2024-02-15T16:44:57;6.20;;;1.60;;
74941;SDS011;63506;49.346;8.798;2024-02-15T16:47:44;2.10;;;0.98;;
74941;SDS011;63506;49.346;8.798;2024-02-15T16:50:35;4.38;;;1.10;;
74941;SDS011;63506;49.346;8.798;2024-02-15T16:53:22;3.85;;;1.00;;
74941;SDS011;63506;49.346;8.798;2024-02-15T16:56:09;2.50;;;1.00;;
74941;SDS011;63506;49.346;8.798;2024-02-15T16:59:00;4.57;;;1.33;;
74941;SDS011;63506;49.346;8.798;2024-02-15T17:01:46;6.88;;;1.20;;
74941;SDS011;63506;49.346;8.798;2024-02-15T17:04:31;6.18;;;1.17;;
74941;SDS011;63506;49.346;8.798;2024-02-15T17:07:15;4.03;;;1.27;;
74941;SDS011;63506;49.346;8.798;2024-02-15T17:10:02;3.50;;;1.40;;
74941;SDS011;63506;49.346;8.798;2024-02-15T17:12:54;1.83;;;1.00;;
74941;SDS011;63506;49.346;8.798;2024-02-15T17:15:39;3.67;;;1.20;;
74941;SDS011;63506;49.346;8.798;2024-02-15T17:18:24;5.28;;;1.58;;
74941;SDS011;63506;49.346;8.798;2024-02-15T17:21:11;3.90;;;1.10;;
74941;SDS011;63506;49.346;8.798;2024-02-15T17:23:55;4.90;;;1.83;;
74941;SDS011;63506;49.346;8.798;2024-02-15T17:26:43;2.95;;;1.55;;
74941;SDS011;63506;49.346;8.798;2024-02-15T17:29:33;4.00;;;2.28;;
74941;SDS011;63506;49.346;8.798;2024-02-15T17:32:20;3.08;;;1.45;;
74941;SDS011;63506;49.346;8.798;2024-02-15T17:35:11;3.50;;;1.55;;
74941;SDS011;63506;49.346;8.798;2024-02-15T17:38:05;4.78;;;1.42;;
74941;SDS011;63506;49.346;8.798;2024-02-15T17:40:50;6.05;;;1.52;;
74941;SDS011;63506;49.346;8.798;2024-02-15T17:43:36;4.60;;;2.50;;
74941;SDS011;63506;49.346;8.798;2024-02-15T17:46:26;2.97;;;1.42;;
74941;SDS011;63506;49.346;8.798;2024-02-15T17:49:15;2.45;;;2.00;;
74941;SDS011;63506;49.346;8.798;2024-02-15T17:52:02;4.35;;;2.17;;
74941;SDS011;63506;49.346;8.798;2024-02-15T17:54:50;56.33;;;20.92;;
74941;SDS011;63506;49.346;8.798;2024-02-15T17:57:35;8.77;;;3.88;;
74941;SDS011;63506;49.346;8.798;2024-02-15T18:00:19;7.55;;;1.75;;
74941;SDS011;63506;49.346;8.798;2024-02-15T18:03:07;4.15;;;2.20;;
74941;SDS011;63506;49.346;8.798;2024-02-15T18:05:53;2.65;;;1.58;;
74941;SDS011;63506;49.346;8.798;2024-02-15T18:08:38;3.78;;;1.30;;
74941;SDS011;63506;49.346;8.798;2024-02-15T18:11:23;5.18;;;1.83;;
74941;SDS011;63506;49.346;8.798;2024-02-15T18:14:09;2.60;;;1.55;;
74941;SDS011;63506;49.346;8.798;2024-02-15T18:16:56;3.63;;;1.60;;
74941;SDS011;63506;49.346;8.798;2024-02-15T18:19:46;2.92;;;1.65;;
74941;SDS011;63506;49.346;8.798;2024-02-15T18:22:32;6.43;;;2.22;;
74941;SDS011;63506;49.346;8.798;2024-02-15T18:25:21;2.75;;;1.52;;
74941;SDS011;63506;49.346;8.798;2024-02-15T18:28:06;4.53;;;1.42;;
74941;SDS011;63506;49.346;8.798;2024-02-15T18:30:55;5.75;;;1.70;;
74941;SDS011;63506;49.346;8.798;2024-02-15T18:33:42;6.03;;;2.03;;
74941;SDS011;63506;49.346;8.798;2024-02-15T18:36:29;6.82;;;3.28;;
74941;SDS011;63506;49.346;8.798;2024-02-15T18:39:13;5.68;;;2.20;;
74941;SDS011;63506;49.346;8.798;2024-02-15T18:42:00;3.90;;;1.90;;
74941;SDS011;63506;49.346;8.798;2024-02-15T18:44:50;6.15;;;2.05;;
74941;SDS011;63506;49.346;8.798;2024-02-15T18:47:36;3.30;;;2.03;;
74941;SDS011;63506;49.346;8.798;2024-02-15T18:50:25;4.63;;;2.60;;
74941;SDS011;63506;49.346;8.798;2024-02-15T18:53:14;5.22;;;2.40;;
74941;SDS011;63506;49.346;8.798;2024-02-15T18:55:59;5.40;;;2.83;;
74941;SDS011;63506;49.346;8.798;2024-02-15T18:58:48;9.80;;;3.08;;
74941;SDS011;63506;49.346;8.798;2024-02-15T19:01:32;4.55;;;2.33;;
74941;SDS011;63506;49.346;8.798;2024-02-15T19:04:21;4.75;;;2.30;;
74941;SDS011;63506;49.346;8.798;2024-02-15T19:07:08;6.95;;;2.58;;
74941;SDS011;63506;49.346;8.798;2024-02-15T19:09:57;6.07;;;3.10;;
74941;SDS011;63506;49.346;8.798;2024-02-15T19:12:42;5.95;;;2.88;;
74941;SDS011;63506;49.346;8.798;2024-02-15T19:15:29;4.57;;;2.35;;
74941;SDS011;63506;49.346;8.798;2024-02-15T19:18:15;4.38;;;2.30;;
74941;SDS011;63506;49.346;8.798;2024-02-15T19:21:04;7.35;;;2.97;;
74941;SDS011;63506;49.346;8.798;2024-02-15T19:23:49;6.13;;;3.38;;
74941;SDS011;63506;49.346;8.798;2024-02-15T19:26:38;5.60;;;2.67;;
74941;SDS011;63506;49.346;8.798;2024-02-15T19:29:23;5.20;;;2.75;;
74941;SDS011;63506;49.346;8.798;2024-02-15T19:32:10;6.00;;;3.05;;
74941;SDS011;63506;49.346;8.798;2024-02-15T19:34:55;5.45;;;3.47;;
74941;SDS011;63506;49.346;8.798;2024-02-15T19:37:39;7.68;;;3.58;;
74941;SDS011;63506;49.346;8.798;2024-02-15T19:40:28;9.82;;;3.70;;
74941;SDS011;63506;49.346;8.798;2024-02-15T19:43:15;5.03;;;3.15;;
74941;SDS011;63506;49.346;8.798;2024-02-15T19:46:03;5.75;;;3.05;;
74941;SDS011;63506;49.346;8.798;2024-02-15T19:48:48;6.35;;;2.30;;
74941;SDS011;63506;49.346;8.798;2024-02-15T19:51:32;5.15;;;2.70;;
74941;SDS011;63506;49.346;8.798;2024-02-15T19:54:16;4.55;;;2.53;;